Terminal Aerodrome Forecast
Issued by NWS Paducah, KY

Home | Current Version | Previous Version | Text Only | Print | Product List | Glossary On
Versions: 1 2 3 4 5 6 7 8 9 10 11 12 13
332
FTUS43 KPAH 222320
TAFPAH
TAF
KPAH 222320Z 2300/2324 22007KT P6SM SKC
     FM231000 23004KT 6SM BR SCT100 BKN250
      TEMPO 2310/2314 BKN100
     FM231500 27006KT P6SM SCT035
     FM231900 29007KT P6SM SCT040=

USA.gov is the U.S. government's official web portal to all federal, state and local government web resources and services.